Time;durP1;ratioP1;P1;durP2;ratioP2;P2;SDS_P1;SDS_P2;PMS_P1;PMS_P2;Temp;Humidity;BMP_temperature;BMP_pressure;BME280_temperature;BME280_humidity;BME280_pressure;Samples;Min_cycle;Max_cycle;Signal;HPM_P1;HPM_P2
2024/04/16 00:01:17;;;;;;;4.30;2.00;;;;;;;14.36;100.00;99607.43;105608;1257;71446;-54
2024/04/16 00:03:45;;;;;;;4.40;1.90;;;;;;;14.28;100.00;99610.29;105955;1254;60824;-54
2024/04/16 00:06:13;;;;;;;3.50;1.90;;;;;;;14.24;100.00;99611.84;105706;1254;60571;-51
2024/04/16 00:08:40;;;;;;;5.40;2.10;;;;;;;14.27;100.00;99611.87;105651;1252;73952;-51
2024/04/16 00:11:09;;;;;;;4.70;2.30;;;;;;;14.26;100.00;99612.89;105768;1256;66233;-51
2024/04/16 00:13:37;;;;;;;3.20;2.00;;;;;;;14.26;100.00;99615.41;105765;1253;72649;-51
2024/04/16 00:16:27;;;;;;;3.70;2.10;;;;;;;14.17;100.00;99615.27;105674;1254;60473;-53
2024/04/16 00:18:55;;;;;;;4.90;2.20;;;;;;;14.27;100.00;99608.89;105333;1252;60459;-54
2024/04/16 00:21:22;;;;;;;3.20;1.70;;;;;;;14.30;100.00;99606.03;105554;1253;72628;-54
2024/04/16 00:23:50;;;;;;;3.70;2.30;;;;;;;14.27;100.00;99607.32;105780;1256;65639;-52
2024/04/16 00:26:17;;;;;;;5.20;1.80;;;;;;;14.24;100.00;99602.40;105410;1252;72740;-51
2024/04/16 00:28:45;;;;;;;3.80;2.00;;;;;;;14.23;100.00;99600.69;105627;1256;61685;-53
2024/04/16 00:31:13;;;;;;;3.90;1.60;;;;;;;14.23;100.00;99594.79;105621;1253;60523;-51
2024/04/16 00:33:40;;;;;;;6.90;1.60;;;;;;;14.24;100.00;99591.55;105793;1253;73853;-51
2024/04/16 00:36:08;;;;;;;3.50;2.00;;;;;;;14.22;100.00;99591.75;105756;1255;65821;-52
2024/04/16 00:38:36;;;;;;;4.30;2.00;;;;;;;14.18;100.00;99592.98;105664;1257;71465;-51
2024/04/16 00:41:03;;;;;;;4.40;1.90;;;;;;;14.15;100.00;99590.27;105768;1256;61006;-51
2024/04/16 00:43:31;;;;;;;7.80;2.80;;;;;;;14.10;100.00;99586.83;105543;1254;60354;-51
2024/04/16 00:45:59;;;;;;;3.20;1.70;;;;;;;14.01;100.00;99575.13;105663;1254;74164;-51
2024/04/16 00:48:28;;;;;;;3.10;1.60;;;;;;;13.93;100.00;99572.55;105795;1254;65097;-54
2024/04/16 00:50:56;;;;;;;3.40;2.00;;;;;;;13.87;100.00;99569.15;105635;1254;72521;-54
2024/04/16 00:53:27;;;;;;;3.70;1.90;;;;;;;13.80;100.00;99561.06;105730;1257;60983;-53
2024/04/16 00:55:54;;;;;;;5.30;1.60;;;;;;;13.77;100.00;99557.27;105700;1254;60393;-53
2024/04/16 00:58:22;;;;;;;2.90;1.70;;;;;;;13.71;100.00;99553.36;105816;1259;73860;-55
2024/04/16 01:00:49;;;;;;;4.60;1.90;;;;;;;13.61;100.00;99545.86;105455;1256;65993;-53
2024/04/16 01:03:17;;;;;;;5.20;2.50;;;;;;;13.61;100.00;99539.33;105587;1254;72726;-53
2024/04/16 01:05:44;;;;;;;3.50;1.80;;;;;;;13.67;100.00;99538.02;105655;1254;61598;-53
2024/04/16 01:08:12;;;;;;;4.00;2.00;;;;;;;13.70;100.00;99535.95;105717;1255;60451;-53
2024/04/16 01:10:40;;;;;;;5.30;2.40;;;;;;;13.76;100.00;99535.28;105330;1256;73409;-54
2024/04/16 01:13:08;;;;;;;5.20;2.70;;;;;;;13.79;100.00;99525.88;105600;1257;66979;-53
2024/04/16 01:15:36;;;;;;;5.50;2.30;;;;;;;13.83;100.00;99525.20;105718;1256;72647;-53
2024/04/16 01:18:05;;;;;;;5.20;2.30;;;;;;;13.84;100.00;99522.36;105619;1254;61711;-53
2024/04/16 01:20:34;;;;;;;6.40;2.30;;;;;;;13.86;100.00;99517.78;105604;1254;60838;-55
2024/04/16 01:23:01;;;;;;;4.50;2.20;;;;;;;13.83;100.00;99516.55;105442;1253;72742;-53
2024/04/16 01:25:31;;;;;;;5.20;2.00;;;;;;;13.84;100.00;99517.16;105656;1257;66180;-53
2024/04/16 01:27:58;;;;;;;6.40;2.80;;;;;;;13.85;100.00;99522.05;105717;1254;72711;-54
2024/04/16 01:30:26;;;;;;;7.40;3.10;;;;;;;13.82;100.00;99521.61;105621;1254;61911;-53
2024/04/16 01:32:54;;;;;;;6.90;2.90;;;;;;;13.79;100.00;99525.73;105686;1253;60572;-54
2024/04/16 01:35:22;;;;;;;5.40;2.80;;;;;;;13.77;100.00;99524.02;105646;1252;73604;-53
2024/04/16 01:37:49;;;;;;;5.00;2.60;;;;;;;13.73;100.00;99520.52;105821;1256;65936;-53
2024/04/16 01:40:17;;;;;;;6.70;3.10;;;;;;;13.70;100.00;99515.63;105931;1254;72661;-54
2024/04/16 01:42:44;;;;;;;4.60;3.00;;;;;;;13.67;100.00;99510.00;105898;1260;61032;-54
2024/04/16 01:45:12;;;;;;;6.90;3.00;;;;;;;13.62;100.00;99502.59;105448;1256;60791;-54
2024/04/16 01:47:39;;;;;;;7.50;3.40;;;;;;;13.60;100.00;99505.35;105478;1257;73908;-54
2024/04/16 01:50:07;;;;;;;6.90;2.60;;;;;;;13.59;100.00;99501.36;105541;1256;67178;-54
2024/04/16 01:52:35;;;;;;;5.50;3.20;;;;;;;13.58;100.00;99505.25;105582;1256;72767;-54
2024/04/16 01:55:03;;;;;;;15.10;3.30;;;;;;;13.58;100.00;99497.44;105840;1254;60574;-54
2024/04/16 01:57:31;;;;;;;6.20;3.10;;;;;;;13.55;100.00;99499.56;105699;1253;60320;-54
2024/04/16 01:59:58;;;;;;;5.60;2.70;;;;;;;13.50;100.00;99499.98;105427;1252;72630;-54
2024/04/16 02:02:26;;;;;;;4.80;2.50;;;;;;;13.47;100.00;99497.88;105735;1254;67072;-53
2024/04/16 02:04:54;;;;;;;9.30;3.20;;;;;;;13.44;100.00;99488.01;105947;1254;72700;-54
2024/04/16 02:07:22;;;;;;;10.60;5.10;;;;;;;13.39;100.00;99484.94;105386;1257;60508;-54
2024/04/16 02:09:49;;;;;;;7.80;3.70;;;;;;;13.34;100.00;99477.48;105612;1256;60463;-53
2024/04/16 02:12:17;;;;;;;7.10;3.40;;;;;;;13.34;100.00;99477.39;105732;1252;73224;-53
2024/04/16 02:14:44;;;;;;;9.00;3.40;;;;;;;13.34;100.00;99478.95;105699;1260;65622;-53
2024/04/16 02:17:12;;;;;;;10.00;4.50;;;;;;;13.27;100.00;99486.64;105458;1254;72728;-53
2024/04/16 02:19:40;;;;;;;6.70;3.30;;;;;;;13.29;100.00;99492.98;105394;1254;61681;-54
2024/04/16 02:22:08;;;;;;;9.50;3.60;;;;;;;13.28;100.00;99504.67;105591;1253;60550;-54
2024/04/16 02:24:35;;;;;;;9.60;4.60;;;;;;;13.24;100.00;99510.30;105610;1257;73888;-53
2024/04/16 02:27:03;;;;;;;12.60;3.90;;;;;;;13.21;100.00;99511.36;106022;1254;67127;-55
2024/04/16 02:29:31;;;;;;;8.50;4.50;;;;;;;13.18;100.00;99509.30;105771;1256;73352;-54
2024/04/16 02:31:58;;;;;;;7.80;5.20;;;;;;;13.16;100.00;99508.64;105642;1254;61697;-53
2024/04/16 02:34:26;;;;;;;9.40;3.80;;;;;;;13.12;100.00;99500.60;105684;1254;61315;-55
2024/04/16 02:36:54;;;;;;;9.80;4.80;;;;;;;13.10;100.00;99496.91;105705;1257;75250;-53
2024/04/16 02:39:22;;;;;;;11.60;4.50;;;;;;;13.08;100.00;99493.20;105807;1258;66405;-53
2024/04/16 02:41:49;;;;;;;8.50;4.60;;;;;;;13.05;100.00;99499.23;105706;1254;72719;-53
2024/04/16 02:44:17;;;;;;;11.30;4.60;;;;;;;13.04;100.00;99503.02;105723;1258;61546;-54
2024/04/16 02:46:44;;;;;;;7.70;5.10;;;;;;;13.06;100.00;99507.74;105733;1252;61282;-53
2024/04/16 02:49:12;;;;;;;10.20;4.80;;;;;;;13.06;100.00;99509.27;106013;1257;74699;-56
2024/04/16 02:51:40;;;;;;;11.40;4.80;;;;;;;13.07;100.00;99509.67;106708;1253;66881;-54
2024/04/16 02:54:07;;;;;;;8.10;5.30;;;;;;;13.09;100.00;99517.36;105728;1258;72739;-54
2024/04/16 02:56:35;;;;;;;8.40;4.60;;;;;;;13.11;100.00;99519.36;105649;1260;61252;-54
2024/04/16 02:59:03;;;;;;;8.60;5.20;;;;;;;13.13;100.00;99521.31;105495;1254;61307;-54
2024/04/16 03:01:32;;;;;;;10.10;5.20;;;;;;;13.15;100.00;99520.98;107048;1256;74737;-54
2024/04/16 03:04:00;;;;;;;13.10;5.00;;;;;;;13.17;100.00;99521.34;105616;1257;64659;-54
2024/04/16 03:06:28;;;;;;;8.70;5.20;;;;;;;13.21;100.00;99527.19;105624;1254;71983;-53
2024/04/16 03:08:55;;;;;;;15.30;5.40;;;;;;;13.30;100.00;99530.02;105655;1253;61708;-54
2024/04/16 03:11:23;;;;;;;11.70;5.10;;;;;;;13.37;100.00;99530.86;105620;1254;61323;-54
2024/04/16 03:13:50;;;;;;;10.30;4.90;;;;;;;13.47;100.00;99532.33;105621;1256;74659;-55
2024/04/16 03:16:18;;;;;;;10.50;5.30;;;;;;;13.56;100.00;99532.48;105712;1259;65680;-54
2024/04/16 03:18:47;;;;;;;8.30;4.60;;;;;;;13.64;100.00;99530.87;105832;1253;72813;-54
2024/04/16 03:21:15;;;;;;;10.30;5.20;;;;;;;13.74;100.00;99529.63;105635;1257;61694;-53
2024/04/16 03:23:43;;;;;;;8.50;5.20;;;;;;;13.88;100.00;99532.70;105751;1254;61205;-54
2024/04/16 03:26:10;;;;;;;11.30;5.50;;;;;;;14.02;100.00;99530.08;105561;1257;74475;-53
2024/04/16 03:28:38;;;;;;;10.30;5.30;;;;;;;14.25;100.00;99522.52;105589;1256;66356;-52
2024/04/16 03:31:05;;;;;;;10.70;6.00;;;;;;;14.59;100.00;99517.12;105761;1254;72839;-52
2024/04/16 03:33:33;;;;;;;9.60;5.30;;;;;;;14.99;100.00;99520.45;105611;1254;61296;-52
2024/04/16 03:36:00;;;;;;;11.00;4.80;;;;;;;15.40;100.00;99519.13;105702;1254;61151;-52
2024/04/16 03:38:29;;;;;;;8.90;4.80;;;;;;;15.74;100.00;99513.39;105689;1254;74710;-52
2024/04/16 03:40:57;;;;;;;9.50;4.90;;;;;;;16.09;100.00;99511.86;105630;1254;66920;-52
2024/04/16 03:43:26;;;;;;;7.40;4.20;;;;;;;16.43;100.00;99508.85;105918;1253;72509;-53
2024/04/16 03:45:57;;;;;;;10.60;4.70;;;;;;;16.77;100.00;99507.95;105816;1260;61320;-53
2024/04/16 03:48:24;;;;;;;8.20;4.60;;;;;;;17.17;100.00;99513.03;105681;1254;61288;-54
2024/04/16 03:50:52;;;;;;;8.10;4.60;;;;;;;17.65;100.00;99510.78;105700;1257;74671;-54
2024/04/16 03:53:20;;;;;;;8.20;4.70;;;;;;;18.16;100.00;99505.45;105863;1255;67167;-55
2024/04/16 03:55:48;;;;;;;8.00;4.30;;;;;;;18.65;100.00;99495.80;105664;1255;72505;-53
2024/04/16 03:58:15;;;;;;;10.50;4.40;;;;;;;19.06;100.00;99493.20;105660;1254;61346;-54
2024/04/16 04:03:30;;;;;;;8.80;4.50;;;;;;;20.07;100.00;99485.53;105645;1253;74405;-54
2024/04/16 04:05:58;;;;;;;8.50;5.80;;;;;;;20.62;100.00;99473.39;105739;1254;66108;-54
2024/04/16 04:08:26;;;;;;;9.10;4.80;;;;;;;21.14;100.00;99459.03;105740;1254;72805;-53
2024/04/16 04:10:54;;;;;;;8.10;5.00;;;;;;;21.55;100.00;99447.76;105663;1254;61410;-54
2024/04/16 04:13:22;;;;;;;7.40;4.70;;;;;;;21.74;100.00;99427.69;105670;1256;61556;-54
2024/04/16 04:15:50;;;;;;;8.80;5.00;;;;;;;21.80;100.00;99415.77;105644;1256;74659;-54
2024/04/16 04:18:17;;;;;;;9.00;5.30;;;;;;;21.64;100.00;99403.63;105716;1254;67037;-54
2024/04/16 04:20:46;;;;;;;11.00;5.40;;;;;;;21.23;100.00;99391.84;105458;1254;72726;-54
2024/04/16 04:23:14;;;;;;;8.10;4.80;;;;;;;20.89;100.00;99385.92;109333;1254;59287;-56
2024/04/16 04:25:42;;;;;;;7.90;5.20;;;;;;;20.73;100.00;99387.63;106249;1256;61089;-53
2024/04/16 04:28:09;;;;;;;8.30;4.70;;;;;;;20.84;100.00;99386.46;105871;1253;74691;-53
2024/04/16 04:30:37;;;;;;;9.80;4.80;;;;;;;21.13;100.00;99378.42;105710;1254;67068;-52
2024/04/16 04:33:05;;;;;;;8.20;5.00;;;;;;;21.43;100.00;99369.45;105615;1257;73306;-53
2024/04/16 04:35:32;;;;;;;7.30;4.20;;;;;;;21.78;100.00;99355.55;105558;1254;61333;-54
2024/04/16 04:38:00;;;;;;;7.60;5.10;;;;;;;22.15;100.00;99346.41;105357;1254;61391;-53
2024/04/16 04:40:27;;;;;;;9.30;4.70;;;;;;;22.52;100.00;99327.21;105574;1253;73880;-53
2024/04/16 04:42:58;;;;;;;8.00;4.00;;;;;;;22.92;100.00;99313.85;105639;1254;67101;-53
2024/04/16 04:45:26;;;;;;;7.70;4.40;;;;;;;23.20;100.00;99302.06;105644;1254;72698;-53
2024/04/16 04:47:53;;;;;;;7.90;4.60;;;;;;;23.46;100.00;99294.35;105645;1254;61212;-54
2024/04/16 04:50:21;;;;;;;6.00;4.50;;;;;;;23.78;100.00;99283.14;105617;1257;61206;-54
2024/04/16 04:52:49;;;;;;;6.20;3.60;;;;;;;24.06;100.00;99278.25;106676;1254;77153;-54
2024/04/16 04:55:16;;;;;;;6.70;3.90;;;;;;;23.93;100.00;99266.63;106050;1254;69838;-54
2024/04/16 04:57:44;;;;;;;5.10;3.60;;;;;;;23.48;100.00;99253.05;105918;1253;75910;-54
2024/04/16 05:00:12;;;;;;;13.20;8.60;;;;;;;22.84;100.00;99255.33;105506;1254;63000;-54
2024/04/16 05:02:40;;;;;;;10.70;5.20;;;;;;;22.11;100.00;99259.80;105433;1257;62920;-54
2024/04/16 05:05:07;;;;;;;9.70;4.30;;;;;;;21.47;100.00;99271.44;105586;1257;77563;-54
2024/04/16 05:07:35;;;;;;;9.10;4.50;;;;;;;20.93;100.00;99280.98;105865;1254;69832;-53
2024/04/16 05:10:04;;;;;;;7.40;4.10;;;;;;;20.54;100.00;99289.34;105575;1257;75196;-54
2024/04/16 05:12:32;;;;;;;6.10;3.80;;;;;;;20.32;100.00;99291.17;105690;1254;61948;-54
2024/04/16 05:15:00;;;;;;;8.40;3.90;;;;;;;20.49;100.00;99290.20;105706;1255;62985;-54
2024/04/16 05:17:28;;;;;;;7.20;3.60;;;;;;;20.89;100.00;99289.23;105361;1255;77152;-54
2024/04/16 05:19:55;;;;;;;5.30;3.40;;;;;;;20.91;100.00;99284.96;105708;1257;70448;-55
2024/04/16 05:22:23;;;;;;;8.00;4.00;;;;;;;20.57;100.00;99284.61;105601;1259;75180;-55
2024/04/16 05:24:51;;;;;;;7.20;4.30;;;;;;;20.16;100.00;99290.59;105723;1257;61568;-54
2024/04/16 05:27:18;;;;;;;10.30;4.70;;;;;;;19.77;100.00;99294.11;105681;1254;62934;-54
2024/04/16 05:29:46;;;;;;;8.80;5.00;;;;;;;19.45;100.00;99298.33;105555;1254;77575;-53
2024/04/16 05:32:14;;;;;;;10.10;5.10;;;;;;;19.12;100.00;99301.17;105633;1254;69280;-54
2024/04/16 05:34:42;;;;;;;9.60;4.80;;;;;;;18.79;100.00;99300.98;105612;1254;75607;-54
2024/04/16 05:37:10;;;;;;;8.40;4.60;;;;;;;18.44;100.00;99302.60;105575;1257;62608;-55
2024/04/16 05:39:38;;;;;;;8.10;4.00;;;;;;;18.19;100.00;99305.23;105619;1257;62937;-55
2024/04/16 05:42:06;;;;;;;9.20;3.70;;;;;;;17.97;100.00;99302.77;105371;1254;77583;-55
2024/04/16 05:57:34;;;;;;;8.20;4.60;;;;;;;17.28;100.00;99298.44;102661;1287;613656;-58
2024/04/16 06:00:04;;;;;;;7.40;4.60;;;;;;;17.26;100.00;99295.27;104411;1271;150748;-58
2024/04/16 06:02:32;;;;;;;8.40;4.00;;;;;;;17.21;100.00;99293.69;104912;1258;61973;-58
2024/04/16 06:05:00;;;;;;;7.50;3.90;;;;;;;17.23;100.00;99293.19;104940;1263;76426;-58
2024/04/16 06:07:28;;;;;;;9.40;4.10;;;;;;;17.30;100.00;99291.08;105000;1259;69695;-58
2024/04/16 06:09:56;;;;;;;11.60;5.20;;;;;;;17.40;100.00;99288.27;105076;1256;73562;-58
2024/04/16 06:12:23;;;;;;;9.80;5.40;;;;;;;17.45;100.00;99289.10;105300;1259;63666;-59
2024/04/16 06:14:51;;;;;;;8.10;4.60;;;;;;;17.52;100.00;99282.20;105270;1259;62070;-58
2024/04/16 06:17:19;;;;;;;7.20;4.00;;;;;;;17.61;100.00;99276.67;105156;1260;74915;-58
2024/04/16 06:19:47;;;;;;;8.00;3.80;;;;;;;17.72;100.00;99271.06;105377;1256;70024;-59
2024/04/16 06:22:14;;;;;;;10.70;4.40;;;;;;;17.86;100.00;99270.75;104979;1254;75633;-58
2024/04/16 06:24:42;;;;;;;7.90;4.10;;;;;;;18.02;100.00;99261.24;105295;1256;64223;-58
2024/04/16 06:27:10;;;;;;;7.50;4.70;;;;;;;18.21;100.00;99255.16;105248;1256;62514;-58
2024/04/16 06:29:38;;;;;;;6.20;3.70;;;;;;;18.44;100.00;99243.59;105183;1259;76702;-58
2024/04/16 07:48:24;;;;;;;9.30;3.80;;;;;;;21.93;100.00;99150.43;102980;1287;613643;-55
2024/04/16 07:50:52;;;;;;;6.40;3.00;;;;;;;23.11;100.00;99133.39;104959;1266;142711;-55
2024/04/16 07:53:20;;;;;;;4.50;3.10;;;;;;;23.60;100.00;99122.59;104832;1267;62528;-55
2024/04/16 07:55:48;;;;;;;5.20;3.20;;;;;;;23.83;100.00;99117.90;104971;1267;74839;-54
2024/04/16 07:58:15;;;;;;;7.20;3.20;;;;;;;23.94;100.00;99111.82;104780;1277;68992;-55
2024/04/16 08:00:44;;;;;;;6.10;3.50;;;;;;;24.10;100.00;99101.41;104870;1266;75544;-56
2024/04/16 08:03:11;;;;;;;5.20;2.90;;;;;;;24.46;100.00;99097.24;105036;1270;62034;-55
2024/04/16 08:05:39;;;;;;;6.20;2.90;;;;;;;24.93;100.00;99088.81;105019;1264;61692;-55
2024/04/16 08:08:07;;;;;;;7.90;3.00;;;;;;;25.45;100.00;99087.41;104955;1263;75279;-55
2024/04/16 08:10:42;;;;;;;7.60;3.10;;;;;;;25.85;100.00;99084.88;105154;1265;69902;-55
2024/04/16 08:13:10;;;;;;;7.00;3.40;;;;;;;26.12;100.00;99086.06;105197;1262;76086;-55
2024/04/16 08:15:38;;;;;;;6.40;3.50;;;;;;;26.11;100.00;99080.08;105142;1264;63497;-55
2024/04/16 08:18:06;;;;;;;6.30;2.90;;;;;;;26.11;100.00;99075.34;104896;1269;61963;-55
2024/04/16 08:20:34;;;;;;;6.40;3.50;;;;;;;26.31;100.00;99072.54;105182;1269;76335;-58
2024/04/16 08:23:01;;;;;;;4.90;2.90;;;;;;;26.62;100.00;99066.61;104940;1268;68741;-54
2024/04/16 08:25:29;;;;;;;5.80;3.30;;;;;;;26.96;100.00;99070.08;105061;1268;75393;-55
2024/04/16 08:27:57;;;;;;;5.40;2.60;;;;;;;26.92;98.87;99073.30;104948;1269;63016;-54
2024/04/16 08:30:25;;;;;;;5.50;2.70;;;;;;;26.71;96.57;99072.30;104988;1263;62904;-56
2024/04/16 08:32:53;;;;;;;4.80;2.60;;;;;;;26.42;98.01;99073.69;105267;1263;76517;-55
2024/04/16 08:35:26;;;;;;;6.20;2.90;;;;;;;26.08;97.72;99072.67;105707;1259;68953;-56
2024/04/16 08:37:55;;;;;;;5.90;2.80;;;;;;;25.74;100.00;99066.98;105639;1259;74443;-56
2024/04/16 08:40:23;;;;;;;8.90;2.80;;;;;;;25.57;100.00;99079.54;105778;1259;61478;-55
2024/04/16 08:42:52;;;;;;;7.20;3.20;;;;;;;25.46;100.00;99080.16;105662;1254;61569;-55
2024/04/16 08:45:21;;;;;;;6.80;2.60;;;;;;;25.43;100.00;99081.04;105490;1260;76764;-54
2024/04/16 08:47:50;;;;;;;4.10;2.50;;;;;;;25.35;100.00;99086.14;105666;1254;68850;-55
2024/04/16 08:50:20;;;;;;;4.40;2.30;;;;;;;25.36;100.00;99076.02;105969;1260;76110;-56
2024/04/16 08:52:49;;;;;;;6.80;3.20;;;;;;;25.57;100.00;99077.30;105359;1256;62425;-55
2024/04/16 08:55:19;;;;;;;4.10;3.10;;;;;;;25.82;100.00;99080.54;105461;1255;63001;-56
2024/04/16 08:57:47;;;;;;;4.40;2.80;;;;;;;26.03;100.00;99085.15;105554;1259;76663;-56
2024/04/16 09:00:15;;;;;;;4.70;2.60;;;;;;;26.13;99.75;99084.84;105750;1259;68827;-58
2024/04/16 09:02:46;;;;;;;5.20;2.70;;;;;;;26.01;98.16;99091.98;105545;1259;75698;-56
2024/04/16 09:05:14;;;;;;;3.50;2.00;;;;;;;25.79;98.96;99095.02;105376;1260;62986;-55
2024/04/16 09:07:42;;;;;;;7.90;2.20;;;;;;;25.56;99.97;99097.08;105449;1260;62952;-56
2024/04/16 09:10:23;;;;;;;5.40;3.30;;;;;;;25.35;100.00;99094.35;105483;1260;75763;-54
2024/04/16 09:12:53;;;;;;;5.90;2.80;;;;;;;25.19;100.00;99100.16;105574;1257;68364;-55
2024/04/16 09:15:21;;;;;;;6.20;2.80;;;;;;;25.11;100.00;99101.95;105541;1269;73867;-56
2024/04/16 09:17:50;;;;;;;7.20;3.20;;;;;;;25.12;100.00;99095.68;105612;1267;61489;-54
2024/04/16 09:20:26;;;;;;;6.70;2.80;;;;;;;25.18;100.00;99095.40;105347;1255;62940;-57
2024/04/16 09:22:54;;;;;;;5.30;3.00;;;;;;;25.30;100.00;99091.66;105513;1260;75567;-57
2024/04/16 09:25:24;;;;;;;4.30;2.20;;;;;;;25.41;100.00;99096.64;105593;1256;67787;-56
2024/04/16 09:27:53;;;;;;;5.50;2.60;;;;;;;25.51;100.00;99092.05;105658;1258;75775;-57
2024/04/16 09:30:21;;;;;;;8.70;3.30;;;;;;;25.58;100.00;99096.94;105470;1261;61502;-55
2024/04/16 09:32:57;;;;;;;5.70;2.80;;;;;;;25.72;100.00;99092.82;105598;1260;61520;-56
2024/04/16 09:35:26;;;;;;;5.70;2.40;;;;;;;25.99;100.00;99090.77;105439;1256;76974;-56
2024/04/16 09:38:04;;;;;;;6.30;3.60;;;;;;;26.39;97.60;99089.85;105695;1258;69943;-58
2024/04/16 09:40:32;;;;;;;4.90;2.70;;;;;;;26.74;91.06;99086.00;105617;1259;75642;-58
2024/04/16 09:43:01;;;;;;;8.90;3.30;;;;;;;27.01;89.80;99085.63;105594;1260;61678;-56
2024/04/16 09:45:32;;;;;;;4.70;2.70;;;;;;;27.36;90.59;99091.49;105754;1259;61653;-56
2024/04/16 09:48:01;;;;;;;7.20;3.00;;;;;;;27.71;82.67;99086.04;105847;1259;76764;-63
2024/04/16 09:50:29;;;;;;;5.20;2.30;;;;;;;27.97;80.81;99084.33;109282;1254;69689;-55
2024/04/16 09:53:00;;;;;;;5.20;2.50;;;;;;;28.19;79.78;99086.66;109090;1254;74133;-54
2024/04/16 09:55:28;;;;;;;7.00;2.80;;;;;;;28.35;71.49;99084.02;109093;1254;61106;-55
2024/04/16 09:57:56;;;;;;;7.90;3.10;;;;;;;28.33;71.35;99088.84;109275;1254;61902;-55
2024/04/16 10:00:23;;;;;;;6.20;2.60;;;;;;;28.25;70.57;99086.86;109033;1254;75876;-55
2024/04/16 10:02:52;;;;;;;7.20;3.10;;;;;;;28.13;68.28;99077.79;109288;1254;66119;-55
2024/04/16 10:05:20;;;;;;;6.30;2.60;;;;;;;27.86;73.21;99085.70;109323;1254;73638;-55
2024/04/16 10:07:47;;;;;;;6.10;2.90;;;;;;;27.74;71.98;99082.63;109385;1254;61144;-54
2024/04/16 10:10:15;;;;;;;7.70;2.80;;;;;;;27.67;74.19;99094.95;109415;1253;62935;-55
2024/04/16 10:12:43;;;;;;;6.10;2.50;;;;;;;27.65;73.97;99093.30;109132;1254;75825;-56
2024/04/16 10:15:13;;;;;;;5.50;2.90;;;;;;;27.67;73.79;99098.96;109110;1255;69955;-59
2024/04/16 10:17:55;;;;;;;5.40;2.40;;;;;;;27.70;75.52;99097.05;109161;1254;74474;-56
2024/04/16 10:31:33;;;;;;;5.10;2.60;;;;;;;28.36;65.72;99094.59;102784;1286;614361;-56
2024/04/16 10:34:02;;;;;;;7.10;2.80;;;;;;;28.40;61.42;99094.07;104350;1270;151370;-57
2024/04/16 10:36:33;;;;;;;5.30;2.70;;;;;;;28.43;64.51;99093.48;105052;1268;63253;-56
2024/04/16 10:39:10;;;;;;;4.60;2.10;;;;;;;28.40;63.28;99097.20;104965;1268;75993;-57
2024/04/16 10:41:38;;;;;;;4.40;2.40;;;;;;;28.25;59.32;99085.81;104931;1260;69369;-56
2024/04/16 10:44:06;;;;;;;6.10;2.50;;;;;;;27.92;62.22;99091.64;105045;1260;75226;-56
2024/04/16 10:46:33;;;;;;;6.50;2.20;;;;;;;27.80;62.52;99087.06;105095;1259;63050;-56
2024/04/16 10:49:01;;;;;;;7.00;2.40;;;;;;;27.77;65.26;99086.83;105000;1260;62513;-55
2024/04/16 10:51:29;;;;;;;4.30;2.80;;;;;;;27.79;64.33;99090.18;105137;1260;74491;-56
2024/04/16 10:54:07;;;;;;;6.80;2.70;;;;;;;27.80;65.03;99087.84;105096;1260;66926;-56
2024/04/16 10:56:38;;;;;;;4.80;2.70;;;;;;;27.90;67.79;99088.18;105107;1257;75675;-56
2024/04/16 10:59:07;;;;;;;5.40;2.50;;;;;;;28.07;67.99;99085.91;105078;1256;60697;-57
2024/04/16 11:01:41;;;;;;;5.50;2.70;;;;;;;28.27;64.62;99078.82;104830;1256;61828;-59
2024/04/16 11:04:13;;;;;;;7.30;3.10;;;;;;;28.40;64.74;99080.14;106404;1258;76804;-59
2024/04/16 11:06:41;;;;;;;8.30;3.20;;;;;;;28.44;61.47;99081.57;105819;1256;66940;-55
2024/04/16 11:09:12;;;;;;;4.80;2.40;;;;;;;28.33;60.97;99084.23;105401;1261;74531;-56
2024/04/16 11:11:40;;;;;;;6.60;2.60;;;;;;;28.11;62.29;99084.61;105360;1257;62553;-57
2024/04/16 11:14:08;;;;;;;9.30;2.80;;;;;;;27.82;64.67;99090.28;105413;1260;61494;-55
2024/04/16 11:16:36;;;;;;;8.40;2.60;;;;;;;27.55;67.15;99087.94;105320;1256;76028;-58
2024/04/16 11:19:04;;;;;;;5.50;3.20;;;;;;;27.31;73.69;99085.44;105343;1256;70202;-57
2024/04/16 11:21:34;;;;;;;4.70;2.80;;;;;;;27.27;76.33;99076.83;105415;1259;74944;-56
2024/04/16 11:24:02;;;;;;;5.00;2.80;;;;;;;27.32;79.98;99076.90;105392;1256;63607;-55
2024/04/16 11:26:30;;;;;;;5.10;2.40;;;;;;;27.55;80.94;99077.61;105338;1256;62972;-55
2024/04/16 11:28:58;;;;;;;6.20;2.40;;;;;;;27.90;79.10;99070.67;105082;1257;76781;-57
2024/04/16 11:31:25;;;;;;;4.50;2.40;;;;;;;28.33;74.68;99070.23;105404;1257;69907;-57
2024/04/16 11:33:55;;;;;;;5.70;2.70;;;;;;;28.70;70.56;99061.00;105436;1257;75671;-57
2024/04/16 11:36:23;;;;;;;9.40;3.30;;;;;;;28.98;69.01;99058.56;105784;1256;60752;-56
2024/04/16 11:38:53;;;;;;;7.30;2.30;;;;;;;29.27;66.02;99056.94;105332;1260;61861;-57
2024/04/16 11:41:21;;;;;;;5.00;2.70;;;;;;;29.43;60.37;99054.36;105237;1260;76073;-56
2024/04/16 11:43:49;;;;;;;7.20;2.80;;;;;;;29.47;60.80;99048.35;105471;1257;70098;-55
2024/04/16 11:46:17;;;;;;;4.50;2.80;;;;;;;29.44;59.96;99052.80;105268;1256;74189;-56
2024/04/16 11:48:45;;;;;;;5.70;2.40;;;;;;;29.23;57.73;99053.38;105073;1256;64164;-58
2024/04/16 11:51:12;;;;;;;5.20;2.90;;;;;;;28.86;57.71;99052.32;105490;1260;61739;-56
2024/04/16 11:53:40;;;;;;;7.10;2.60;;;;;;;28.46;60.17;99053.55;105229;1256;76367;-56
2024/04/16 11:56:08;;;;;;;5.10;2.70;;;;;;;28.14;63.83;99054.65;105342;1260;69836;-55
2024/04/16 11:58:42;;;;;;;8.80;3.30;;;;;;;27.94;68.96;99055.61;105425;1260;75683;-56
2024/04/16 12:01:11;;;;;;;7.90;2.50;;;;;;;27.94;71.43;99056.30;105355;1256;63157;-55
2024/04/16 12:03:39;;;;;;;4.20;2.50;;;;;;;28.04;70.84;99049.92;105439;1257;61940;-56
2024/04/16 12:06:07;;;;;;;5.10;2.80;;;;;;;28.21;69.46;99048.66;105353;1260;77011;-56
2024/04/16 12:08:35;;;;;;;5.00;2.60;;;;;;;28.40;67.66;99040.70;105506;1256;70216;-56
2024/04/16 12:11:03;;;;;;;6.60;2.90;;;;;;;28.67;63.34;99031.81;105228;1257;74462;-56
2024/04/16 12:13:31;;;;;;;8.40;2.70;;;;;;;28.86;60.80;99032.73;105472;1256;61705;-56
2024/04/16 12:15:58;;;;;;;5.30;2.80;;;;;;;29.03;59.35;99036.41;105380;1256;63006;-56
2024/04/16 12:18:26;;;;;;;4.90;2.30;;;;;;;29.17;54.15;99032.92;105449;1256;76768;-56
2024/04/16 12:20:54;;;;;;;5.70;2.80;;;;;;;29.21;52.61;99028.70;105235;1256;69195;-56
2024/04/16 12:23:22;;;;;;;4.90;2.20;;;;;;;29.16;52.88;99028.33;105454;1257;75743;-56
2024/04/16 12:25:49;;;;;;;2.90;1.80;;;;;;;29.09;51.24;99028.17;105273;1257;61584;-55
2024/04/16 12:28:19;;;;;;;4.80;2.10;;;;;;;29.01;52.30;99029.09;105499;1257;62932;-56
2024/04/16 12:30:48;;;;;;;3.80;2.30;;;;;;;29.06;52.73;99027.86;105727;1259;76761;-56
2024/04/16 12:33:16;;;;;;;4.60;2.20;;;;;;;29.09;50.29;99022.45;105354;1257;69844;-56
2024/04/16 12:35:45;;;;;;;6.70;2.40;;;;;;;29.05;50.97;99022.85;105327;1260;74561;-56
2024/04/16 12:38:12;;;;;;;3.90;2.30;;;;;;;28.99;49.79;99017.05;105354;1257;63324;-56
2024/04/16 12:40:40;;;;;;;5.50;2.40;;;;;;;28.95;50.30;99018.59;105059;1257;62979;-56
2024/04/16 12:43:08;;;;;;;5.40;2.50;;;;;;;28.91;50.43;99015.46;105385;1256;76619;-56
2024/04/16 12:45:37;;;;;;;8.10;2.30;;;;;;;28.83;49.91;99010.58;105304;1259;68887;-56
2024/04/16 12:48:05;;;;;;;7.00;3.10;;;;;;;28.80;50.79;99014.43;105491;1257;74782;-56
2024/04/16 12:50:34;;;;;;;5.90;2.40;;;;;;;28.77;51.47;99016.96;105181;1262;61931;-57
2024/04/16 12:53:03;;;;;;;5.50;2.80;;;;;;;28.72;51.82;99020.94;105282;1256;62959;-57
2024/04/16 12:55:31;;;;;;;5.60;2.90;;;;;;;28.69;53.27;99016.69;105365;1260;76855;-56
2024/04/16 12:57:58;;;;;;;12.90;3.00;;;;;;;28.69;53.34;99018.09;105377;1256;69844;-56
2024/04/16 13:00:27;;;;;;;6.70;2.40;;;;;;;28.73;52.27;99024.64;105518;1256;74872;-55
2024/04/16 13:02:55;;;;;;;5.90;2.30;;;;;;;28.74;52.71;99027.44;105501;1257;61670;-55
2024/04/16 13:05:23;;;;;;;6.60;2.50;;;;;;;28.66;51.53;99025.23;105371;1256;61496;-55
2024/04/16 13:07:50;;;;;;;8.00;2.60;;;;;;;28.46;52.28;99020.60;105308;1260;74935;-55